createdAt,value
2024-05-09T00:04:50.362Z,94.14
2024-05-09T00:09:55.110Z,93.93
2024-05-09T00:14:59.751Z,94.25
2024-05-09T00:20:14.338Z,94.88
2024-05-09T00:25:25.086Z,96.52
2024-05-09T00:30:34.577Z,97.70
2024-05-09T00:35:44.302Z,97.75
2024-05-09T00:40:49.043Z,96.81
2024-05-09T00:45:55.001Z,96.15
2024-05-09T00:51:02.470Z,97.49
2024-05-09T00:56:08.162Z,98.70
2024-05-09T01:01:13.476Z,98.88
2024-05-09T01:06:22.658Z,100.00
2024-05-09T01:11:27.327Z,99.56
2024-05-09T01:16:32.012Z,99.44
2024-05-09T01:21:43.234Z,99.55
2024-05-09T01:26:50.689Z,99.94
2024-05-09T01:31:59.177Z,100.00
2024-05-09T01:37:03.933Z,100.00
2024-05-09T01:42:11.266Z,100.00
2024-05-09T01:47:15.966Z,100.00
2024-05-09T01:52:20.824Z,99.99
2024-05-09T01:57:28.312Z,100.00
2024-05-09T02:02:33.200Z,100.00
2024-05-09T02:07:38.094Z,100.00
2024-05-09T02:12:45.774Z,100.00
2024-05-09T02:17:50.840Z,100.00
2024-05-09T02:22:57.444Z,100.00
2024-05-09T02:28:04.935Z,100.00
2024-05-09T02:33:11.684Z,100.00
2024-05-09T02:38:18.285Z,100.00
2024-05-09T02:43:25.797Z,100.00
2024-05-09T02:48:30.586Z,100.00
2024-05-09T02:53:35.484Z,100.00
2024-05-09T02:58:42.917Z,100.00
2024-05-09T03:03:50.382Z,100.00
2024-05-09T03:08:55.181Z,100.00
2024-05-09T03:14:02.721Z,100.00
2024-05-09T03:19:07.735Z,100.00
2024-05-09T03:24:13.885Z,100.00
2024-05-09T03:29:21.615Z,100.00
2024-05-09T03:34:26.330Z,100.00
2024-05-09T03:39:31.154Z,100.00
2024-05-09T03:44:38.461Z,100.00
2024-05-09T03:49:43.208Z,100.00
2024-05-09T03:54:49.212Z,100.00
2024-05-09T03:59:56.479Z,100.00
2024-05-09T04:05:01.231Z,100.00
2024-05-09T04:10:08.907Z,100.00
2024-05-09T04:15:16.389Z,100.00
2024-05-09T04:20:32.347Z,100.00
2024-05-09T04:25:45.344Z,100.00
2024-05-09T04:30:53.137Z,100.00
2024-05-09T04:35:57.834Z,100.00
2024-05-09T04:41:02.598Z,100.00
2024-05-09T04:46:10.081Z,100.00
2024-05-09T04:51:14.867Z,100.00
2024-05-09T04:56:19.602Z,100.00
2024-05-09T05:01:26.917Z,100.00
2024-05-09T05:06:31.712Z,100.00
2024-05-09T05:11:36.434Z,100.00
2024-05-09T05:16:43.768Z,100.00
2024-05-09T05:21:48.420Z,100.00
2024-05-09T05:26:53.278Z,100.00
2024-05-09T05:32:00.818Z,100.00
2024-05-09T05:37:05.718Z,100.00
2024-05-09T05:42:10.462Z,100.00
2024-05-09T05:47:17.848Z,100.00
2024-05-09T05:52:22.648Z,100.00
2024-05-09T05:57:27.398Z,100.00
2024-05-09T06:02:36.062Z,100.00
2024-05-09T06:07:40.743Z,100.00
2024-05-09T06:12:45.362Z,100.00
2024-05-09T06:17:52.859Z,100.00
2024-05-09T06:22:57.599Z,100.00
2024-05-09T06:28:02.662Z,100.00
2024-05-09T06:33:14.998Z,100.00
2024-05-09T06:38:21.216Z,100.00
2024-05-09T06:43:26.110Z,100.00
2024-05-09T06:48:33.661Z,100.00
2024-05-09T06:53:43.577Z,100.00
2024-05-09T06:58:49.352Z,100.00
2024-05-09T07:03:56.908Z,98.83
2024-05-09T07:09:01.593Z,98.22
2024-05-09T07:14:07.296Z,93.84
2024-05-09T07:19:15.050Z,94.24
2024-05-09T07:24:20.174Z,88.89
2024-05-09T07:29:24.878Z,88.37
2024-05-09T07:34:32.168Z,83.98
2024-05-09T07:39:36.927Z,80.15
2024-05-09T07:44:41.683Z,80.75
2024-05-09T07:51:32.644Z,79.10
2024-05-09T07:55:14.617Z,77.70
2024-05-09T08:00:26.783Z,76.29
2024-05-09T08:05:38.192Z,62.68
2024-05-09T08:10:43.031Z,61.09
2024-05-09T08:15:47.739Z,63.80
2024-05-09T08:20:55.070Z,62.52
2024-05-09T08:25:59.854Z,62.92
2024-05-09T08:31:07.003Z,68.10
2024-05-09T08:36:14.935Z,60.39
2024-05-09T08:41:19.717Z,58.30
2024-05-09T08:46:24.707Z,57.30
2024-05-09T08:51:32.197Z,49.28
2024-05-09T08:56:37.782Z,49.32
2024-05-09T09:01:44.469Z,52.66
2024-05-09T09:06:56.559Z,55.63
2024-05-09T09:12:02.606Z,58.10
2024-05-09T09:17:15.451Z,58.15
2024-05-09T09:22:22.865Z,55.14
2024-05-09T09:27:27.816Z,52.35
2024-05-09T09:32:32.789Z,53.72
2024-05-09T09:37:40.824Z,52.51
2024-05-09T09:42:46.801Z,49.66
2024-05-09T09:47:51.959Z,47.49
2024-05-09T09:53:00.347Z,49.45
2024-05-09T09:58:09.582Z,45.94
2024-05-09T10:03:16.777Z,46.10
2024-05-09T10:08:26.142Z,46.09
2024-05-09T10:13:36.053Z,44.79
2024-05-09T10:18:41.835Z,45.40
2024-05-09T10:23:59.925Z,44.34
2024-05-09T10:29:15.510Z,44.88
2024-05-09T10:34:21.244Z,43.70
2024-05-09T10:39:28.661Z,44.32
2024-05-09T10:44:33.315Z,41.96
2024-05-09T10:49:38.369Z,43.94
2024-05-09T10:54:45.786Z,41.60
2024-05-09T10:59:53.162Z,41.64
2024-05-09T11:04:57.985Z,42.19
2024-05-09T11:10:12.526Z,42.62
2024-05-09T11:15:19.306Z,42.60
2024-05-09T11:20:29.518Z,43.34
2024-05-09T11:25:37.543Z,43.25
2024-05-09T11:30:42.241Z,42.94
2024-05-09T11:35:47.384Z,42.17
2024-05-09T11:40:54.946Z,39.96
2024-05-09T11:46:00.356Z,39.86
2024-05-09T11:51:05.104Z,38.57
2024-05-09T11:56:15.442Z,39.73
2024-05-09T12:01:21.019Z,39.90
2024-05-09T12:06:26.832Z,38.54
2024-05-09T12:11:34.488Z,37.92
2024-05-09T12:16:40.137Z,37.46
2024-05-09T12:21:45.269Z,37.87
2024-05-09T12:26:52.750Z,36.27
2024-05-09T12:31:57.578Z,35.72
2024-05-09T12:37:02.375Z,33.06
2024-05-09T12:42:12.456Z,19.29
2024-05-09T12:47:17.699Z,13.25
2024-05-09T12:52:22.500Z,10.45
2024-05-09T12:57:29.967Z,9.33
2024-05-09T13:02:34.782Z,9.81
2024-05-09T13:07:39.760Z,8.76
2024-05-09T13:12:49.294Z,9.08
2024-05-09T13:17:56.370Z,9.97
2024-05-09T13:23:04.835Z,11.36
2024-05-09T13:46:55.139Z,10.08
2024-05-09T13:51:59.814Z,8.33
2024-05-09T13:57:04.608Z,11.14
2024-05-09T14:02:12.020Z,13.04
2024-05-09T14:07:17.076Z,19.82
2024-05-09T14:12:21.850Z,21.77
2024-05-09T14:17:29.372Z,16.97
2024-05-09T14:22:35.740Z,10.39
2024-05-09T14:27:40.630Z,8.49
2024-05-09T14:32:49.227Z,9.25
2024-05-09T14:37:54.628Z,8.43
2024-05-09T14:43:02.565Z,8.95
2024-05-09T14:48:11.489Z,9.86
2024-05-09T14:53:16.562Z,14.93
2024-05-09T14:58:22.426Z,14.67
2024-05-09T15:03:30.330Z,13.32
2024-05-09T15:08:35.743Z,11.95
2024-05-09T15:13:40.802Z,10.84
2024-05-09T15:18:48.631Z,9.90
2024-05-09T15:23:53.897Z,9.96
2024-05-09T15:28:59.019Z,8.78
2024-05-09T15:34:08.436Z,8.60
2024-05-09T15:39:13.623Z,9.20
2024-05-09T15:44:18.654Z,11.35
2024-05-09T15:49:26.481Z,13.86
2024-05-09T15:54:31.790Z,17.13
2024-05-09T15:59:36.529Z,19.31
2024-05-09T16:04:44.447Z,20.04
2024-05-09T16:09:50.005Z,22.63
2024-05-09T16:14:55.367Z,22.71
2024-05-09T16:20:06.807Z,23.30
2024-05-09T16:25:13.753Z,24.32
2024-05-09T16:30:27.798Z,25.83
2024-05-09T16:35:42.145Z,27.27
2024-05-09T16:40:47.364Z,27.77
2024-05-09T16:45:53.782Z,28.42
2024-05-09T16:51:01.295Z,28.85
2024-05-09T16:56:06.602Z,29.02
2024-05-09T17:01:13.658Z,29.66
2024-05-09T17:06:21.352Z,30.14
2024-05-09T17:11:26.243Z,30.83
2024-05-09T17:16:31.471Z,31.91
2024-05-09T17:21:39.176Z,33.22
2024-05-09T17:26:45.980Z,34.25
2024-05-09T17:31:50.711Z,35.26
2024-05-09T17:36:58.148Z,35.16
2024-05-09T17:42:02.835Z,35.90
2024-05-09T17:47:08.041Z,36.86
2024-05-09T17:52:15.688Z,37.38
2024-05-09T17:57:20.420Z,38.41
2024-05-09T18:02:25.134Z,40.15
2024-05-09T18:07:32.596Z,40.42
2024-05-09T18:12:37.299Z,41.51
2024-05-09T18:17:42.681Z,41.87
2024-05-09T18:22:49.964Z,41.94
2024-05-09T18:27:54.784Z,42.15
2024-05-09T18:32:59.554Z,42.99
2024-05-09T18:44:15.539Z,44.33
2024-05-09T18:49:20.607Z,45.01
2024-05-09T18:54:28.013Z,45.69
2024-05-09T18:59:32.666Z,46.46
2024-05-09T19:04:37.467Z,47.15
2024-05-09T19:09:45.121Z,50.23
2024-05-09T19:14:49.811Z,52.32
2024-05-09T19:19:55.099Z,54.52
2024-05-09T19:25:02.579Z,57.00
2024-05-09T19:30:17.405Z,57.47
2024-05-09T19:35:29.054Z,58.76
2024-05-09T19:40:36.744Z,59.12
2024-05-09T19:45:41.601Z,58.55
2024-05-09T19:50:48.309Z,60.16
2024-05-09T19:55:58.476Z,61.84
2024-05-09T20:01:03.276Z,62.22
2024-05-09T20:06:08.224Z,62.19
2024-05-09T20:11:17.428Z,63.05
2024-05-09T20:16:22.187Z,63.94
2024-05-09T20:21:27.073Z,66.27
2024-05-09T20:26:34.518Z,67.81
2024-05-09T20:31:41.303Z,68.92
2024-05-09T20:36:45.983Z,69.51
2024-05-09T20:41:53.448Z,70.48
2024-05-09T20:47:00.612Z,69.99
2024-05-09T20:52:05.723Z,70.56
2024-05-09T20:57:13.166Z,72.32
2024-05-09T21:02:18.220Z,73.17
2024-05-09T21:07:23.238Z,74.25
2024-05-09T21:12:30.633Z,74.57
2024-05-09T21:17:35.585Z,74.21
2024-05-09T21:22:41.118Z,75.76
2024-05-09T21:27:48.501Z,75.97
2024-05-09T21:32:53.309Z,77.64
2024-05-09T21:37:57.940Z,79.20
2024-05-09T21:43:05.546Z,79.64
2024-05-09T21:48:11.268Z,80.38
2024-05-09T21:53:16.666Z,80.44
2024-05-09T21:58:24.035Z,81.68
2024-05-09T22:03:28.873Z,82.78
2024-05-09T22:08:33.611Z,82.34
2024-05-09T22:13:41.154Z,83.50
2024-05-09T22:18:46.024Z,83.12
2024-05-09T22:23:50.851Z,83.07
2024-05-09T22:28:58.092Z,83.21
2024-05-09T22:34:02.932Z,84.45
2024-05-09T22:39:08.428Z,84.33
2024-05-09T22:44:15.671Z,85.07
2024-05-09T22:49:20.284Z,85.37
2024-05-09T22:54:25.048Z,85.03
2024-05-09T22:59:32.535Z,86.20
2024-05-09T23:04:37.518Z,87.43
2024-05-09T23:09:42.239Z,86.48
2024-05-09T23:14:49.895Z,87.39
2024-05-09T23:19:54.672Z,88.30
2024-05-09T23:24:59.448Z,88.15
2024-05-09T23:30:12.011Z,88.78
2024-05-09T23:35:17.332Z,89.23
2024-05-09T23:40:23.487Z,89.28
2024-05-09T23:45:34.494Z,90.15
2024-05-09T23:50:40.567Z,88.94
2024-05-09T23:55:45.888Z,89.32
